createdAt,value
2022-11-23T00:01:35.949Z,88.31
2022-11-23T00:04:05.396Z,88.34
2022-11-23T00:06:32.374Z,88.57
2022-11-23T00:08:59.588Z,88.60
2022-11-23T00:11:27.623Z,88.50
2022-11-23T00:13:55.064Z,88.38
2022-11-23T00:16:24.403Z,88.19
2022-11-23T00:18:59.694Z,88.21
2022-11-23T00:21:30.373Z,88.30
2022-11-23T00:23:57.157Z,88.43
2022-11-23T00:26:23.566Z,88.34
2022-11-23T00:28:50.419Z,88.70
2022-11-23T00:31:19.365Z,88.48
2022-11-23T00:33:51.715Z,88.48
2022-11-23T00:36:19.517Z,88.70
2022-11-23T00:38:46.294Z,88.40
2022-11-23T00:41:16.328Z,88.25
2022-11-23T00:43:45.656Z,87.92
2022-11-23T00:46:20.726Z,87.95
2022-11-23T00:48:53.414Z,88.11
2022-11-23T00:51:23.258Z,88.31
2022-11-23T00:53:53.075Z,88.23
2022-11-23T00:56:21.738Z,87.96
2022-11-23T00:58:53.864Z,88.16
2022-11-23T01:01:22.631Z,88.10
2022-11-23T01:03:52.640Z,87.73
2022-11-23T01:06:23.533Z,87.80
2022-11-23T01:08:59.848Z,87.69
2022-11-23T01:11:30.562Z,87.88
2022-11-23T01:13:58.250Z,87.53
2022-11-23T01:16:29.036Z,87.89
2022-11-23T01:18:59.874Z,87.92
2022-11-23T01:21:29.579Z,87.88
2022-11-23T01:23:57.385Z,87.99
2022-11-23T01:26:25.346Z,87.73
2022-11-23T01:28:52.469Z,87.86
2022-11-23T01:31:22.329Z,87.74
2022-11-23T01:33:56.034Z,87.77
2022-11-23T01:36:29.133Z,87.90
2022-11-23T01:38:56.112Z,87.93
2022-11-23T01:41:28.167Z,87.93
2022-11-23T01:43:55.501Z,88.04
2022-11-23T01:46:22.068Z,88.15
2022-11-23T01:48:58.025Z,87.97
2022-11-23T01:51:35.716Z,87.92
2022-11-23T01:54:09.944Z,87.93
2022-11-23T01:56:42.246Z,88.06
2022-11-23T01:59:12.879Z,87.97
2022-11-23T02:01:39.466Z,87.78
2022-11-23T02:04:08.665Z,87.78
2022-11-23T02:06:35.191Z,88.08
2022-11-23T02:09:02.185Z,87.71
2022-11-23T02:11:28.792Z,87.83
2022-11-23T02:13:56.955Z,87.72
2022-11-23T02:16:23.419Z,87.44
2022-11-23T02:18:51.978Z,87.61
2022-11-23T02:21:19.471Z,87.35
2022-11-23T02:24:10.189Z,87.31
2022-11-23T02:26:36.922Z,87.28
2022-11-23T02:29:09.294Z,87.11
2022-11-23T02:31:39.126Z,87.27
2022-11-23T02:34:05.503Z,87.00
2022-11-23T02:36:38.004Z,87.21
2022-11-23T02:39:12.417Z,86.76
2022-11-23T02:41:44.047Z,86.80
2022-11-23T02:44:23.900Z,86.85
2022-11-23T02:46:51.719Z,87.05
2022-11-23T02:49:18.247Z,86.59
2022-11-23T02:51:44.637Z,86.75
2022-11-23T02:54:11.138Z,86.56
2022-11-23T02:56:37.818Z,86.62
2022-11-23T02:59:04.424Z,86.79
2022-11-23T03:01:31.056Z,86.57
2022-11-23T03:03:57.447Z,86.11
2022-11-23T03:06:23.967Z,86.38
2022-11-23T03:08:50.387Z,86.29
2022-11-23T03:11:17.481Z,86.16
2022-11-23T03:13:44.320Z,85.89
2022-11-23T03:16:11.045Z,86.01
2022-11-23T03:18:37.433Z,85.62
2022-11-23T03:21:05.564Z,85.96
2022-11-23T03:23:31.953Z,85.61
2022-11-23T03:25:59.119Z,85.71
2022-11-23T03:28:26.083Z,85.68
2022-11-23T03:30:52.722Z,85.45
2022-11-23T03:33:19.315Z,85.58
2022-11-23T03:35:46.652Z,85.42
2022-11-23T03:38:13.384Z,85.72
2022-11-23T03:40:39.915Z,85.65
2022-11-23T03:43:06.664Z,85.70
2022-11-23T03:45:33.125Z,85.47
2022-11-23T03:47:59.582Z,85.70
2022-11-23T03:50:26.026Z,85.49
2022-11-23T03:52:52.443Z,85.58
2022-11-23T03:55:18.917Z,85.67
2022-11-23T03:57:48.324Z,85.62
2022-11-23T04:00:15.584Z,85.84
2022-11-23T04:02:43.233Z,85.67
2022-11-23T04:05:10.024Z,85.84
2022-11-23T04:07:36.519Z,85.97
2022-11-23T04:10:03.992Z,86.03
2022-11-23T04:12:30.431Z,85.78
2022-11-23T04:14:56.809Z,85.93
2022-11-23T04:17:23.194Z,86.08
2022-11-23T04:19:49.571Z,85.68
2022-11-23T04:22:15.981Z,85.56
2022-11-23T04:24:42.399Z,85.42
2022-11-23T04:27:08.930Z,84.91
2022-11-23T04:29:35.340Z,84.46
2022-11-23T04:32:01.779Z,84.23
2022-11-23T04:34:28.279Z,83.92
2022-11-23T04:36:54.770Z,83.95
2022-11-23T04:39:21.225Z,83.73
2022-11-23T04:41:47.637Z,83.39
2022-11-23T04:44:14.024Z,83.56
2022-11-23T04:46:40.415Z,83.32
2022-11-23T04:49:06.863Z,83.29
2022-11-23T04:51:33.245Z,83.69
2022-11-23T04:53:59.615Z,83.24
2022-11-23T04:56:26.232Z,83.14
2022-11-23T04:58:52.655Z,82.84
2022-11-23T05:01:19.107Z,82.86
2022-11-23T05:03:45.560Z,82.63
2022-11-23T05:06:11.937Z,82.65
2022-11-23T05:08:38.403Z,82.73
2022-11-23T05:11:04.997Z,82.68
2022-11-23T05:13:31.727Z,82.40
2022-11-23T05:16:00.716Z,82.50
2022-11-23T05:18:27.251Z,82.53
2022-11-23T05:20:53.708Z,82.77
2022-11-23T05:23:20.238Z,82.62
2022-11-23T05:25:46.937Z,82.88
2022-11-23T05:28:38.931Z,83.06
2022-11-23T05:31:04.616Z,82.57
2022-11-23T05:33:31.178Z,82.91
2022-11-23T05:35:57.681Z,83.19
2022-11-23T05:38:24.169Z,82.96
2022-11-23T05:40:50.627Z,83.29
2022-11-23T05:43:17.071Z,83.22
2022-11-23T05:45:43.471Z,83.48
2022-11-23T05:48:10.272Z,83.77
2022-11-23T05:50:37.061Z,83.97
2022-11-23T05:53:03.599Z,83.62
2022-11-23T05:55:30.059Z,84.27
2022-11-23T05:57:56.439Z,84.81
2022-11-23T06:00:23.335Z,84.86
2022-11-23T06:02:49.783Z,84.39
2022-11-23T06:05:18.803Z,85.07
2022-11-23T06:07:45.281Z,84.64
2022-11-23T06:10:12.585Z,85.04
2022-11-23T06:12:39.512Z,84.84
2022-11-23T06:15:06.574Z,84.55
2022-11-23T06:17:33.076Z,84.62
2022-11-23T06:19:59.538Z,84.80
2022-11-23T06:22:25.992Z,84.41
2022-11-23T06:24:52.399Z,84.76
2022-11-23T06:27:18.857Z,84.37
2022-11-23T06:29:46.857Z,84.79
2022-11-23T06:32:13.637Z,85.02
2022-11-23T06:34:40.077Z,84.89
2022-11-23T06:37:06.638Z,84.72
2022-11-23T06:39:33.468Z,84.87
2022-11-23T06:42:16.867Z,84.67
2022-11-23T06:44:46.690Z,84.80
2022-11-23T06:47:17.176Z,84.68
2022-11-23T06:49:44.848Z,84.28
2022-11-23T06:52:11.398Z,84.31
2022-11-23T06:54:37.897Z,84.62
2022-11-23T06:57:07.795Z,84.44
2022-11-23T06:59:34.412Z,84.50
2022-11-23T07:02:01.077Z,84.13
2022-11-23T07:04:27.577Z,84.04
2022-11-23T07:06:54.012Z,84.42
2022-11-23T07:09:20.570Z,84.08
2022-11-23T07:11:46.990Z,84.13
2022-11-23T07:14:13.870Z,84.13
2022-11-23T07:16:40.315Z,84.29
2022-11-23T07:19:06.793Z,84.08
2022-11-23T07:21:33.751Z,83.94
2022-11-23T07:24:00.387Z,83.78
2022-11-23T07:26:26.970Z,84.01
2022-11-23T07:28:53.446Z,83.78
2022-11-23T07:31:19.966Z,83.71
2022-11-23T07:33:47.206Z,83.64
2022-11-23T07:36:14.459Z,84.15
2022-11-23T07:38:41.247Z,83.61
2022-11-23T07:41:08.012Z,83.98
2022-11-23T07:43:34.455Z,83.85
2022-11-23T07:46:01.072Z,84.37
2022-11-23T07:48:29.747Z,83.97
2022-11-23T07:50:59.730Z,83.82
2022-11-23T07:53:26.428Z,84.57
2022-11-23T07:55:57.806Z,84.19
2022-11-23T07:58:24.588Z,83.85
2022-11-23T08:00:51.149Z,83.45
2022-11-23T08:03:33.083Z,83.52
2022-11-23T08:05:59.650Z,83.40
2022-11-23T08:08:26.067Z,83.03
2022-11-23T08:10:54.156Z,82.79
2022-11-23T08:13:21.779Z,82.76
2022-11-23T08:15:53.729Z,82.77
2022-11-23T08:18:20.897Z,83.15
2022-11-23T08:20:47.374Z,83.14
2022-11-23T08:23:13.839Z,83.05
2022-11-23T08:25:40.294Z,82.86
2022-11-23T08:28:06.724Z,83.05
2022-11-23T08:30:34.952Z,82.65
2022-11-23T08:33:05.864Z,82.31
2022-11-23T08:35:39.979Z,82.38
2022-11-23T08:38:07.816Z,82.20
2022-11-23T08:40:35.351Z,82.09
2022-11-23T08:43:02.164Z,81.98
2022-11-23T08:45:29.038Z,81.84
2022-11-23T08:48:02.763Z,82.36
2022-11-23T08:50:30.269Z,82.11
2022-11-23T08:52:57.842Z,82.12
2022-11-23T08:55:25.416Z,81.87
2022-11-23T08:57:55.529Z,82.10
2022-11-23T09:00:22.046Z,82.74
2022-11-23T09:02:48.532Z,83.23
2022-11-23T09:05:15.120Z,83.23
2022-11-23T09:07:41.801Z,82.99
2022-11-23T09:10:09.426Z,83.47
2022-11-23T09:12:38.333Z,84.26
2022-11-23T09:15:05.215Z,84.29
2022-11-23T09:17:32.859Z,84.63
2022-11-23T09:20:00.193Z,84.34
2022-11-23T09:22:27.251Z,84.60
2022-11-23T09:24:53.807Z,84.64
2022-11-23T09:27:20.410Z,84.46
2022-11-23T09:29:46.891Z,84.22
2022-11-23T09:32:13.353Z,83.72
2022-11-23T09:34:39.791Z,84.28
2022-11-23T09:37:06.406Z,83.79
2022-11-23T09:39:34.060Z,84.05
2022-11-23T09:42:13.528Z,83.33
2022-11-23T09:44:45.840Z,83.41
2022-11-23T09:47:24.340Z,82.77
2022-11-23T09:50:03.461Z,82.75
2022-11-23T09:52:31.157Z,82.66
2022-11-23T09:55:03.383Z,82.40
2022-11-23T09:57:36.396Z,82.40
2022-11-23T10:00:12.341Z,82.22
2022-11-23T10:02:41.049Z,82.78
2022-11-23T10:05:16.900Z,82.36
2022-11-23T10:07:55.289Z,82.14
2022-11-23T10:10:29.065Z,82.00
2022-11-23T10:13:08.599Z,82.02
2022-11-23T10:15:45.633Z,81.35
2022-11-23T10:18:21.049Z,80.23
2022-11-23T10:21:06.540Z,78.36
2022-11-23T10:23:54.515Z,77.14
2022-11-23T10:26:28.709Z,76.43
2022-11-23T10:28:57.369Z,76.23
2022-11-23T10:31:25.828Z,75.21
2022-11-23T10:34:09.082Z,74.76
2022-11-23T10:36:36.724Z,74.92
2022-11-23T10:39:15.284Z,74.30
2022-11-23T10:41:42.012Z,73.04
2022-11-23T10:44:30.833Z,73.79
2022-11-23T10:46:58.844Z,73.55
2022-11-23T10:49:29.220Z,72.23
2022-11-23T10:52:05.452Z,70.40
2022-11-23T10:54:39.256Z,70.34
2022-11-23T10:57:27.668Z,68.64
2022-11-23T11:00:00.846Z,67.52
2022-11-23T11:02:28.212Z,66.38
2022-11-23T11:06:06.967Z,65.85
2022-11-23T11:08:21.291Z,64.55
2022-11-23T11:10:53.004Z,63.52
2022-11-23T11:13:37.785Z,64.24
2022-11-23T11:16:07.049Z,63.37
2022-11-23T11:18:36.660Z,61.88
2022-11-23T11:21:41.162Z,62.82
2022-11-23T11:24:18.466Z,62.79
2022-11-23T11:27:01.277Z,62.53
2022-11-23T11:29:48.794Z,62.41
2022-11-23T11:32:30.311Z,60.63
2022-11-23T11:35:20.585Z,60.83
2022-11-23T11:37:50.860Z,60.89
2022-11-23T11:40:29.841Z,61.40
2022-11-23T11:43:05.829Z,60.70
2022-11-23T11:45:36.824Z,60.64
2022-11-23T11:48:10.437Z,59.76
2022-11-23T11:50:50.097Z,59.12
2022-11-23T11:53:24.796Z,59.14
2022-11-23T11:56:01.635Z,58.69
2022-11-23T11:58:28.103Z,58.35
2022-11-23T12:01:28.858Z,59.07
2022-11-23T12:03:59.974Z,59.26
2022-11-23T12:06:42.313Z,57.80
2022-11-23T12:09:18.688Z,57.62
2022-11-23T12:11:45.396Z,58.29
2022-11-23T12:14:14.440Z,57.44
2022-11-23T12:19:59.789Z,57.59
2022-11-23T12:22:36.179Z,56.64
2022-11-23T12:25:11.454Z,56.83
2022-11-23T12:27:48.598Z,57.66
2022-11-23T12:30:23.151Z,58.56
2022-11-23T12:33:08.432Z,57.88
2022-11-23T12:36:01.531Z,58.90
2022-11-23T12:38:31.402Z,59.09
2022-11-23T12:41:15.070Z,60.19
2022-11-23T12:44:23.855Z,59.03
2022-11-23T12:47:18.459Z,59.92
2022-11-23T12:49:45.584Z,59.72
2022-11-23T12:52:38.011Z,58.91
2022-11-23T12:55:24.103Z,58.20
2022-11-23T12:58:10.021Z,58.20
2022-11-23T13:00:41.158Z,57.82
2022-11-23T13:03:24.629Z,57.20
2022-11-23T13:06:13.141Z,57.32
2022-11-23T13:09:09.134Z,57.69
2022-11-23T13:12:02.603Z,57.17
2022-11-23T13:14:35.374Z,56.63
2022-11-23T13:17:42.749Z,56.72
2022-11-23T13:20:23.718Z,58.17
2022-11-23T13:22:51.614Z,57.55
2022-11-23T13:25:23.173Z,57.80
2022-11-23T13:27:50.900Z,57.39
2022-11-23T13:31:14.651Z,58.46
2022-11-23T13:33:37.383Z,58.34
2022-11-23T13:36:10.414Z,58.19
2022-11-23T13:38:41.408Z,59.48
2022-11-23T13:41:39.035Z,58.92
2022-11-23T13:44:23.172Z,60.06
2022-11-23T13:47:03.767Z,59.36
2022-11-23T13:49:30.141Z,60.17
2022-11-23T13:52:30.143Z,60.17
2022-11-23T13:55:07.485Z,60.23
2022-11-23T13:57:36.251Z,59.97
2022-11-23T14:00:40.413Z,60.15
2022-11-23T14:03:44.339Z,61.37
2022-11-23T14:06:29.133Z,61.13
2022-11-23T14:09:05.138Z,60.99
2022-11-23T14:11:40.471Z,61.27
2022-11-23T14:14:18.913Z,62.23
2022-11-23T14:17:19.639Z,62.11
2022-11-23T14:20:13.709Z,62.18
2022-11-23T14:22:52.411Z,62.12
2022-11-23T14:25:28.329Z,62.30
2022-11-23T14:28:19.494Z,62.13
2022-11-23T14:30:49.096Z,61.98
2022-11-23T14:33:24.592Z,61.75
2022-11-23T14:36:11.055Z,63.00
2022-11-23T14:39:01.911Z,62.30
2022-11-23T14:41:31.224Z,62.77
2022-11-23T14:44:00.814Z,62.48
2022-11-23T14:46:27.792Z,62.93
2022-11-23T14:49:04.774Z,63.78
2022-11-23T14:51:31.600Z,64.70
2022-11-23T14:54:01.299Z,65.31
2022-11-23T14:56:43.773Z,66.98
2022-11-23T14:59:24.719Z,68.56
2022-11-23T15:01:56.006Z,68.99
2022-11-23T15:04:35.595Z,69.77
2022-11-23T15:07:09.966Z,71.25
2022-11-23T15:10:00.413Z,72.49
2022-11-23T15:12:29.803Z,73.55
2022-11-23T15:14:59.605Z,73.75
2022-11-23T15:17:26.702Z,73.68
2022-11-23T15:19:55.205Z,73.84
2022-11-23T15:22:21.978Z,74.25
2022-11-23T15:24:48.647Z,74.34
2022-11-23T15:27:19.020Z,73.78
2022-11-23T15:29:57.293Z,76.37
2022-11-23T15:32:33.275Z,76.62
2022-11-23T15:35:04.274Z,75.20
2022-11-23T15:37:32.543Z,76.02
2022-11-23T15:39:59.891Z,76.12
2022-11-23T15:42:27.106Z,76.16
2022-11-23T15:44:54.248Z,76.57
2022-11-23T15:47:28.348Z,76.51
2022-11-23T15:50:01.232Z,76.69
2022-11-23T15:52:32.358Z,77.49
2022-11-23T15:55:08.800Z,77.93
2022-11-23T15:57:39.621Z,78.21
2022-11-23T16:00:07.597Z,77.69
2022-11-23T16:02:34.922Z,78.09
2022-11-23T16:05:18.457Z,78.44
2022-11-23T16:07:59.643Z,78.76
2022-11-23T16:10:28.395Z,79.69
2022-11-23T16:12:59.637Z,79.47
2022-11-23T16:15:38.402Z,80.73
2022-11-23T16:18:18.272Z,80.90
2022-11-23T16:20:57.949Z,80.73
2022-11-23T16:23:27.438Z,81.24
2022-11-23T16:26:13.637Z,81.26
2022-11-23T16:28:55.435Z,82.39
2022-11-23T16:31:38.215Z,81.96
2022-11-23T16:34:17.350Z,82.53
2022-11-23T16:36:44.118Z,82.17
2022-11-23T16:39:11.318Z,82.45
2022-11-23T16:41:38.213Z,83.52
2022-11-23T16:44:04.790Z,83.24
2022-11-23T16:46:37.847Z,82.87
2022-11-23T16:49:14.658Z,83.45
2022-11-23T16:51:41.095Z,83.39
2022-11-23T16:54:13.445Z,83.34
2022-11-23T16:56:41.285Z,83.55
2022-11-23T16:59:16.089Z,83.31
2022-11-23T17:01:45.750Z,83.80
2022-11-23T17:04:14.661Z,83.86
2022-11-23T17:06:42.686Z,84.42
2022-11-23T17:09:10.321Z,83.78
2022-11-23T17:11:40.351Z,84.15
2022-11-23T17:14:09.020Z,83.79
2022-11-23T17:16:35.649Z,84.01
2022-11-23T17:19:02.251Z,83.78
2022-11-23T17:21:28.796Z,84.16
2022-11-23T17:23:55.319Z,84.78
2022-11-23T17:26:35.081Z,84.84
2022-11-23T17:29:04.210Z,84.63
2022-11-23T17:31:31.032Z,84.69
2022-11-23T17:33:57.639Z,84.84
2022-11-23T17:36:26.151Z,84.57
2022-11-23T17:38:53.005Z,84.76
2022-11-23T17:41:19.427Z,85.20
2022-11-23T17:43:45.868Z,85.11
2022-11-23T17:46:19.360Z,85.23
2022-11-23T17:48:46.735Z,84.94
2022-11-23T17:51:13.636Z,84.82
2022-11-23T17:53:40.952Z,84.85
2022-11-23T17:56:16.941Z,85.41
2022-11-23T17:58:44.141Z,85.27
2022-11-23T18:01:13.718Z,85.46
2022-11-23T18:03:41.098Z,85.82
2022-11-23T18:06:14.955Z,85.61
2022-11-23T18:08:43.184Z,85.55
2022-11-23T18:11:10.297Z,85.47
2022-11-23T18:13:37.635Z,85.34
2022-11-23T18:16:04.644Z,85.59
2022-11-23T18:18:31.694Z,85.96
2022-11-23T18:21:01.575Z,85.80
2022-11-23T18:23:28.434Z,85.63
2022-11-23T18:25:59.338Z,86.14
2022-11-23T18:28:25.823Z,85.89
2022-11-23T18:30:52.254Z,85.61
2022-11-23T18:33:18.785Z,85.98
2022-11-23T18:35:45.248Z,85.35
2022-11-23T18:38:11.693Z,85.77
2022-11-23T18:40:38.120Z,85.66
2022-11-23T18:43:04.538Z,86.08
2022-11-23T18:45:32.006Z,86.13
2022-11-23T18:47:58.412Z,86.00
2022-11-23T18:50:24.803Z,85.94
2022-11-23T18:52:51.251Z,86.44
2022-11-23T18:55:20.785Z,86.04
2022-11-23T18:57:47.395Z,86.58
2022-11-23T19:00:15.795Z,86.28
2022-11-23T19:02:42.507Z,86.39
2022-11-23T19:05:09.192Z,85.93
2022-11-23T19:07:35.659Z,86.04
2022-11-23T19:10:03.008Z,86.32
2022-11-23T19:12:30.763Z,86.26
2022-11-23T19:14:57.188Z,86.36
2022-11-23T19:17:23.680Z,86.53
2022-11-23T19:19:50.079Z,86.10
2022-11-23T19:22:16.540Z,85.95
2022-11-23T19:24:42.927Z,86.67
2022-11-23T19:27:09.796Z,86.87
2022-11-23T19:29:36.491Z,86.25
2022-11-23T19:32:03.191Z,85.86
2022-11-23T19:34:29.611Z,86.23
2022-11-23T19:36:56.117Z,86.11
2022-11-23T19:39:22.510Z,85.83
2022-11-23T19:41:49.064Z,85.95
2022-11-23T19:44:15.514Z,85.88
2022-11-23T19:46:42.021Z,85.70
2022-11-23T19:49:08.729Z,85.96
2022-11-23T19:51:35.266Z,86.08
2022-11-23T19:54:02.086Z,86.05
2022-11-23T19:56:29.376Z,85.99
2022-11-23T19:59:00.772Z,86.02
2022-11-23T20:01:29.290Z,85.90
2022-11-23T20:03:57.753Z,85.44
2022-11-23T20:06:26.795Z,85.15
2022-11-23T20:08:55.638Z,85.48
2022-11-23T20:11:22.419Z,85.37
2022-11-23T20:13:49.122Z,85.47
2022-11-23T20:16:18.405Z,85.29
2022-11-23T20:18:46.870Z,85.73
2022-11-23T20:21:13.832Z,85.38
2022-11-23T20:23:41.424Z,85.62
2022-11-23T20:26:08.371Z,85.72
2022-11-23T20:28:34.819Z,86.02
2022-11-23T20:31:05.819Z,86.09
2022-11-23T20:33:32.763Z,85.90
2022-11-23T20:36:19.829Z,85.98
2022-11-23T20:38:46.919Z,85.24
2022-11-23T20:41:21.851Z,85.56
2022-11-23T20:43:51.575Z,85.75
2022-11-23T20:46:38.202Z,85.38
2022-11-23T20:49:04.629Z,85.56
2022-11-23T20:51:31.575Z,85.42
2022-11-23T20:53:58.129Z,85.42
2022-11-23T20:56:27.330Z,85.46
2022-11-23T20:58:55.943Z,85.42
2022-11-23T21:01:22.505Z,85.13
2022-11-23T21:03:51.993Z,85.42
2022-11-23T21:06:19.816Z,85.93
2022-11-23T21:08:47.948Z,85.81
2022-11-23T21:11:42.186Z,85.84
2022-11-23T21:14:18.594Z,85.53
2022-11-23T21:16:55.196Z,85.82
2022-11-23T21:19:23.884Z,85.50
2022-11-23T21:21:50.826Z,85.20
2022-11-23T21:24:20.472Z,85.14
2022-11-23T21:26:47.703Z,85.51
2022-11-23T21:29:18.363Z,85.56
2022-11-23T21:31:46.673Z,85.34
2022-11-23T21:34:26.102Z,85.22
2022-11-23T21:36:53.646Z,85.46
2022-11-23T21:39:20.580Z,85.60
2022-11-23T21:41:50.054Z,85.76
2022-11-23T21:44:16.871Z,85.47
2022-11-23T21:46:43.447Z,85.30
2022-11-23T21:49:11.072Z,85.79
2022-11-23T21:51:38.485Z,85.81
2022-11-23T21:54:09.962Z,86.00
2022-11-23T21:56:39.580Z,85.58
2022-11-23T21:59:07.664Z,86.14
2022-11-23T22:01:36.160Z,85.64
2022-11-23T22:04:11.163Z,85.92
2022-11-23T22:06:39.281Z,86.05
2022-11-23T22:09:09.085Z,85.71
2022-11-23T22:11:37.669Z,86.11
2022-11-23T22:14:07.160Z,85.64
2022-11-23T22:16:39.079Z,86.01
2022-11-23T22:19:06.641Z,86.35
2022-11-23T22:21:38.364Z,85.72
2022-11-23T22:24:06.510Z,85.39
2022-11-23T22:26:33.407Z,85.89
2022-11-23T22:29:02.396Z,86.00
2022-11-23T22:31:34.002Z,85.84
2022-11-23T22:34:02.658Z,85.61
2022-11-23T22:36:29.471Z,86.18
2022-11-23T22:39:01.356Z,86.01
2022-11-23T22:41:29.792Z,85.66
2022-11-23T22:43:56.880Z,86.08
2022-11-23T22:46:25.049Z,86.45
2022-11-23T22:48:52.159Z,86.23
2022-11-23T22:51:21.685Z,86.06
2022-11-23T22:53:48.277Z,85.99
2022-11-23T22:56:17.355Z,85.88
2022-11-23T22:58:45.152Z,85.73
2022-11-23T23:01:16.061Z,85.89
2022-11-23T23:03:42.853Z,86.59
2022-11-23T23:06:20.869Z,86.13
2022-11-23T23:08:52.184Z,85.90
2022-11-23T23:11:18.854Z,86.12
2022-11-23T23:13:45.494Z,86.30
2022-11-23T23:16:13.507Z,86.55
2022-11-23T23:18:41.979Z,86.21
2022-11-23T23:21:11.061Z,86.20
2022-11-23T23:23:38.930Z,85.91
2022-11-23T23:26:06.209Z,86.21
2022-11-23T23:28:34.143Z,85.97
2022-11-23T23:31:06.709Z,85.85
2022-11-23T23:33:33.641Z,86.39
2022-11-23T23:36:08.965Z,86.74
2022-11-23T23:38:37.124Z,86.27
2022-11-23T23:41:05.027Z,86.08
2022-11-23T23:43:32.448Z,85.91
2022-11-23T23:46:00.988Z,85.98
2022-11-23T23:48:33.370Z,86.09
2022-11-23T23:51:06.419Z,86.25
2022-11-23T23:53:34.473Z,85.76
2022-11-23T23:56:04.243Z,86.12
2022-11-23T23:58:31.583Z,86.15
